createdAt,value
2022-10-20T00:01:50.479Z,28.65
2022-10-20T00:04:17.064Z,26.35
2022-10-20T00:06:43.651Z,24.63
2022-10-20T00:09:10.310Z,20.13
2022-10-20T00:11:36.778Z,27.88
2022-10-20T00:14:03.767Z,22.35
2022-10-20T00:16:31.964Z,21.65
2022-10-20T00:21:27.118Z,22.02
2022-10-20T00:23:53.923Z,28.02
2022-10-20T00:26:23.699Z,18.40
2022-10-20T00:28:51.404Z,24.27
2022-10-20T00:31:20.157Z,22.60
2022-10-20T00:33:47.656Z,27.83
2022-10-20T00:36:17.392Z,22.88
2022-10-20T00:38:44.852Z,20.88
2022-10-20T00:41:16.553Z,23.15
2022-10-20T00:43:50.608Z,19.67
2022-10-20T00:46:21.488Z,22.40
2022-10-20T00:48:52.351Z,23.60
2022-10-20T00:51:22.477Z,22.83
2022-10-20T00:53:52.214Z,23.08
2022-10-20T00:56:19.132Z,23.10
2022-10-20T00:58:46.182Z,24.23
2022-10-20T01:01:13.549Z,21.80
2022-10-20T01:03:45.517Z,21.02
2022-10-20T01:06:14.779Z,23.58
2022-10-20T01:08:41.463Z,22.33
2022-10-20T01:11:19.942Z,22.40
2022-10-20T01:13:52.458Z,25.23
2022-10-20T01:16:32.664Z,24.23
2022-10-20T01:19:13.944Z,24.58
2022-10-20T01:22:12.520Z,26.05
2022-10-20T01:24:48.143Z,24.70
2022-10-20T01:27:34.803Z,25.60
2022-10-20T01:30:04.006Z,22.15
2022-10-20T01:32:38.408Z,27.50
2022-10-20T01:35:21.669Z,22.23
2022-10-20T01:38:12.029Z,21.73
2022-10-20T01:40:52.398Z,19.10
2022-10-20T01:43:21.687Z,20.33
2022-10-20T01:45:50.975Z,16.55
2022-10-20T01:48:22.698Z,23.25
2022-10-20T01:50:50.742Z,19.67
2022-10-20T01:53:17.389Z,23.20
2022-10-20T01:55:44.091Z,20.20
2022-10-20T01:58:28.868Z,23.73
2022-10-20T02:01:21.850Z,24.60
2022-10-20T02:03:56.604Z,21.75
2022-10-20T02:06:35.129Z,26.58
2022-10-20T02:09:06.947Z,21.42
2022-10-20T02:11:55.003Z,22.05
2022-10-20T02:14:22.743Z,18.75
2022-10-20T02:16:59.111Z,16.15
2022-10-20T02:19:31.090Z,18.88
2022-10-20T02:21:58.124Z,19.50
2022-10-20T02:24:29.470Z,19.25
2022-10-20T02:26:59.604Z,20.92
2022-10-20T02:29:30.794Z,18.60
2022-10-20T02:31:58.167Z,21.55
2022-10-20T02:34:27.807Z,17.70
2022-10-20T02:36:59.015Z,18.63
2022-10-20T02:39:26.637Z,16.45
2022-10-20T02:41:53.186Z,15.07
2022-10-20T02:44:19.645Z,17.08
2022-10-20T02:46:46.125Z,15.98
2022-10-20T02:49:12.600Z,18.40
2022-10-20T02:51:39.107Z,30.63
2022-10-20T02:54:05.635Z,19.63
2022-10-20T02:56:32.155Z,18.55
2022-10-20T02:58:58.714Z,20.25
2022-10-20T03:01:25.459Z,15.88
2022-10-20T03:03:52.059Z,17.63
2022-10-20T03:06:18.623Z,21.98
2022-10-20T03:08:45.243Z,19.85
2022-10-20T03:11:11.719Z,22.25
2022-10-20T03:13:38.249Z,18.70
2022-10-20T03:16:04.871Z,18.70
2022-10-20T03:18:31.459Z,22.10
2022-10-20T03:20:58.037Z,19.75
2022-10-20T03:23:24.623Z,16.83
2022-10-20T03:25:51.189Z,22.10
2022-10-20T03:28:17.945Z,20.10
2022-10-20T03:30:44.551Z,23.73
2022-10-20T03:33:11.004Z,15.65
2022-10-20T03:35:37.499Z,15.88
2022-10-20T03:38:04.044Z,20.02
2022-10-20T03:40:30.623Z,20.35
2022-10-20T03:42:57.231Z,20.60
2022-10-20T03:45:23.723Z,15.63
2022-10-20T03:47:50.310Z,16.38
2022-10-20T03:50:16.831Z,16.13
2022-10-20T03:52:43.352Z,30.63
2022-10-20T03:55:09.950Z,16.55
2022-10-20T03:57:36.804Z,17.17
2022-10-20T04:00:03.849Z,18.90
2022-10-20T04:02:43.777Z,18.83
2022-10-20T04:05:14.730Z,14.82
2022-10-20T04:07:41.638Z,16.75
2022-10-20T04:10:09.172Z,15.82
2022-10-20T04:12:36.029Z,13.63
2022-10-20T04:15:04.557Z,17.92
2022-10-20T04:17:31.192Z,19.95
2022-10-20T04:19:57.759Z,16.33
2022-10-20T04:22:24.346Z,18.77
2022-10-20T04:24:50.858Z,20.70
2022-10-20T04:27:17.620Z,15.07
2022-10-20T04:29:44.166Z,16.40
2022-10-20T04:32:10.835Z,16.83
2022-10-20T04:34:37.322Z,15.52
2022-10-20T04:37:04.075Z,15.25
2022-10-20T04:39:30.745Z,16.15
2022-10-20T04:41:57.222Z,17.90
2022-10-20T04:44:23.696Z,13.30
2022-10-20T04:46:50.332Z,12.55
2022-10-20T04:49:16.921Z,19.00
2022-10-20T04:51:43.368Z,17.15
2022-10-20T04:54:09.906Z,17.67
2022-10-20T04:56:36.434Z,14.45
2022-10-20T04:59:04.051Z,19.20
2022-10-20T05:01:31.392Z,16.75
2022-10-20T05:03:58.338Z,19.73
2022-10-20T05:06:27.167Z,15.82
2022-10-20T05:08:56.760Z,18.40
2022-10-20T05:11:25.121Z,17.48
2022-10-20T05:13:51.827Z,18.70
2022-10-20T05:16:18.802Z,19.80
2022-10-20T05:18:46.811Z,16.92
2022-10-20T05:21:19.703Z,18.30
2022-10-20T05:23:46.339Z,22.85
2022-10-20T05:26:16.751Z,17.40
2022-10-20T05:28:46.076Z,15.40
2022-10-20T05:31:13.463Z,15.75
2022-10-20T05:33:43.559Z,14.57
2022-10-20T05:36:10.882Z,13.90
2022-10-20T05:38:37.409Z,14.27
2022-10-20T05:41:12.557Z,23.13
2022-10-20T05:43:39.386Z,16.33
2022-10-20T05:46:06.592Z,14.63
2022-10-20T05:48:33.431Z,16.27
2022-10-20T05:51:13.770Z,16.65
2022-10-20T05:53:42.623Z,20.27
2022-10-20T05:56:12.170Z,22.13
2022-10-20T05:58:39.150Z,16.80
2022-10-20T06:01:08.320Z,17.50
2022-10-20T06:03:35.279Z,16.67
2022-10-20T06:06:02.987Z,15.48
2022-10-20T06:08:33.780Z,16.50
2022-10-20T06:11:04.758Z,12.85
2022-10-20T06:13:31.805Z,18.70
2022-10-20T06:16:06.313Z,15.70
2022-10-20T06:18:33.424Z,12.05
2022-10-20T06:21:01.917Z,14.65
2022-10-20T06:23:28.828Z,16.92
2022-10-20T06:25:55.661Z,20.75
2022-10-20T06:28:22.197Z,14.45
2022-10-20T06:30:48.693Z,21.58
2022-10-20T06:33:15.256Z,12.52
2022-10-20T06:35:41.923Z,13.45
2022-10-20T06:38:08.403Z,12.95
2022-10-20T06:40:34.871Z,11.18
2022-10-20T06:43:01.480Z,18.55
2022-10-20T06:45:28.083Z,12.80
2022-10-20T06:47:54.571Z,14.13
2022-10-20T06:50:21.449Z,18.83
2022-10-20T06:52:48.051Z,12.63
2022-10-20T06:55:14.675Z,11.20
2022-10-20T06:57:41.211Z,10.63
2022-10-20T07:00:08.564Z,13.05
2022-10-20T07:02:38.014Z,12.60
2022-10-20T07:05:05.237Z,13.43
2022-10-20T07:07:31.844Z,9.35
2022-10-20T07:09:58.441Z,13.20
2022-10-20T07:12:25.048Z,15.73
2022-10-20T07:14:51.609Z,13.70
2022-10-20T07:17:18.046Z,16.48
2022-10-20T07:19:44.609Z,12.20
2022-10-20T07:22:11.060Z,12.65
2022-10-20T07:24:37.503Z,14.65
2022-10-20T07:27:04.072Z,13.55
2022-10-20T07:29:30.667Z,13.40
2022-10-20T07:31:59.920Z,15.65
2022-10-20T07:34:28.283Z,10.25
2022-10-20T07:36:56.581Z,14.05
2022-10-20T07:39:23.558Z,13.18
2022-10-20T07:41:50.118Z,16.15
2022-10-20T07:44:17.387Z,17.55
2022-10-20T07:46:44.391Z,16.57
2022-10-20T07:51:57.722Z,25.55
2022-10-20T07:54:24.274Z,14.50
2022-10-20T07:56:51.400Z,13.23
2022-10-20T07:59:18.921Z,12.15
2022-10-20T08:01:46.523Z,14.60
2022-10-20T08:04:13.156Z,10.27
2022-10-20T08:06:39.764Z,11.38
2022-10-20T08:09:06.967Z,20.67
2022-10-20T08:11:33.791Z,14.43
2022-10-20T08:14:00.350Z,17.08
2022-10-20T08:16:29.871Z,13.98
2022-10-20T08:19:10.110Z,12.30
2022-10-20T08:21:36.651Z,9.90
2022-10-20T08:24:03.246Z,11.63
2022-10-20T08:26:29.897Z,12.63
2022-10-20T08:28:56.498Z,9.93
2022-10-20T08:31:23.436Z,13.77
2022-10-20T08:33:52.915Z,11.18
2022-10-20T08:36:20.588Z,13.98
2022-10-20T08:38:47.868Z,7.82
2022-10-20T08:41:34.539Z,8.48
2022-10-20T08:44:03.998Z,12.30
2022-10-20T08:46:36.976Z,11.00
2022-10-20T08:49:07.725Z,10.60
2022-10-20T08:51:36.781Z,9.77
2022-10-20T08:54:04.694Z,10.93
2022-10-20T08:56:34.644Z,12.77
2022-10-20T08:59:02.201Z,10.77
2022-10-20T09:01:37.838Z,10.43
2022-10-20T09:04:19.683Z,10.73
2022-10-20T09:06:50.591Z,11.02
2022-10-20T09:09:21.581Z,8.45
2022-10-20T09:11:48.873Z,9.38
2022-10-20T09:14:15.442Z,9.47
2022-10-20T09:16:59.312Z,10.48
2022-10-20T09:19:27.596Z,9.52
2022-10-20T09:21:58.478Z,10.52
2022-10-20T09:24:28.268Z,7.63
2022-10-20T09:26:59.186Z,10.98
2022-10-20T09:29:37.844Z,14.68
2022-10-20T09:32:45.002Z,10.77
2022-10-20T09:35:14.905Z,9.77
2022-10-20T09:37:43.469Z,9.60
2022-10-20T09:40:15.181Z,12.98
2022-10-20T09:42:50.691Z,13.82
2022-10-20T09:45:23.970Z,8.45
2022-10-20T09:47:54.402Z,8.25
2022-10-20T09:50:27.398Z,6.32
2022-10-20T09:52:54.927Z,6.68
2022-10-20T09:55:31.783Z,11.23
2022-10-20T09:58:00.486Z,9.68
2022-10-20T10:00:37.557Z,7.40
2022-10-20T10:03:17.262Z,6.07
2022-10-20T10:05:43.836Z,10.15
2022-10-20T10:08:15.295Z,8.52
2022-10-20T10:10:44.622Z,5.10
2022-10-20T10:13:26.373Z,10.20
2022-10-20T10:16:08.170Z,8.20
2022-10-20T10:18:36.282Z,9.10
2022-10-20T10:23:35.054Z,8.52
2022-10-20T10:26:03.372Z,7.30
2022-10-20T10:28:38.971Z,8.57
2022-10-20T10:31:19.543Z,3.92
2022-10-20T10:33:46.835Z,6.30
2022-10-20T10:36:29.650Z,5.73
2022-10-20T10:38:56.906Z,12.77
2022-10-20T10:41:34.740Z,6.07
2022-10-20T10:44:26.163Z,7.55
2022-10-20T10:47:21.825Z,5.05
2022-10-20T10:49:55.533Z,7.45
2022-10-20T10:52:31.518Z,7.80
2022-10-20T10:55:48.388Z,5.57
2022-10-20T10:58:31.327Z,10.52
2022-10-20T11:01:19.843Z,8.13
2022-10-20T11:04:10.491Z,7.95
2022-10-20T11:06:44.206Z,8.57
2022-10-20T11:09:38.571Z,5.10
2022-10-20T11:12:42.453Z,7.20
2022-10-20T11:15:39.241Z,7.00
2022-10-20T11:18:27.579Z,6.73
2022-10-20T11:21:29.184Z,5.28
2022-10-20T11:24:16.941Z,6.32
2022-10-20T11:29:30.006Z,6.40
2022-10-20T11:32:14.501Z,10.95
2022-10-20T11:34:52.669Z,8.60
2022-10-20T11:37:26.005Z,5.00
2022-10-20T11:40:09.256Z,7.95
2022-10-20T11:42:46.032Z,6.45
2022-10-20T11:45:29.572Z,5.43
2022-10-20T11:48:04.472Z,5.82
2022-10-20T11:50:32.086Z,5.93
2022-10-20T11:53:21.771Z,7.82
2022-10-20T11:55:57.030Z,4.65
2022-10-20T11:58:49.652Z,5.45
2022-10-20T12:01:39.308Z,8.50
2022-10-20T12:04:08.500Z,6.28
2022-10-20T12:06:47.385Z,7.05
2022-10-20T12:09:26.675Z,8.82
2022-10-20T12:12:05.086Z,4.05
2022-10-20T12:15:01.673Z,8.48
2022-10-20T12:17:34.503Z,5.05
2022-10-20T12:20:22.447Z,5.38
2022-10-20T12:22:54.987Z,6.75
2022-10-20T12:25:24.561Z,7.22
2022-10-20T12:28:22.087Z,5.45
2022-10-20T12:30:59.095Z,4.82
2022-10-20T12:33:36.247Z,5.97
2022-10-20T12:36:17.825Z,7.07
2022-10-20T12:39:07.449Z,8.63
2022-10-20T12:41:39.449Z,7.10
2022-10-20T12:44:14.886Z,5.95
2022-10-20T12:46:57.051Z,5.78
2022-10-20T12:49:36.044Z,6.93
2022-10-20T12:52:04.696Z,4.38
2022-10-20T12:54:39.364Z,5.55
2022-10-20T12:57:36.834Z,5.18
2022-10-20T13:00:20.203Z,5.35
2022-10-20T13:02:57.094Z,5.30
2022-10-20T13:05:38.355Z,5.07
2022-10-20T13:08:19.812Z,6.15
2022-10-20T13:10:46.997Z,7.43
2022-10-20T13:13:19.638Z,7.95
2022-10-20T13:15:46.041Z,7.15
2022-10-20T13:18:12.472Z,6.13
2022-10-20T13:20:50.918Z,10.82
2022-10-20T13:23:30.885Z,4.10
2022-10-20T13:26:03.144Z,6.60
2022-10-20T13:28:32.142Z,7.18
2022-10-20T13:31:12.559Z,5.72
2022-10-20T13:34:04.622Z,6.22
2022-10-20T13:36:37.621Z,5.68
2022-10-20T13:39:23.165Z,4.90
2022-10-20T13:41:55.985Z,7.15
2022-10-20T13:44:30.525Z,4.75
2022-10-20T13:47:25.191Z,7.80
2022-10-20T13:50:05.287Z,7.30
2022-10-20T13:52:37.953Z,7.85
2022-10-20T13:55:07.438Z,6.35
2022-10-20T13:57:35.903Z,4.35
2022-10-20T14:00:16.734Z,4.95
2022-10-20T14:02:53.100Z,5.95
2022-10-20T14:05:21.895Z,2.90
2022-10-20T14:07:48.839Z,5.07
2022-10-20T14:10:43.984Z,3.45
2022-10-20T14:13:15.724Z,5.57
2022-10-20T14:15:48.465Z,10.77
2022-10-20T14:18:27.038Z,4.55
2022-10-20T14:20:59.117Z,7.35
2022-10-20T14:23:28.350Z,8.57
2022-10-20T14:25:56.807Z,9.15
2022-10-20T14:28:25.241Z,8.60
2022-10-20T14:30:52.407Z,17.45
2022-10-20T14:33:19.233Z,13.02
2022-10-20T14:35:53.063Z,6.57
2022-10-20T14:38:24.088Z,5.43
2022-10-20T14:40:53.500Z,8.75
2022-10-20T14:43:45.536Z,7.95
2022-10-20T14:46:22.569Z,11.20
2022-10-20T14:48:50.716Z,7.73
2022-10-20T14:51:32.543Z,11.95
2022-10-20T14:54:20.147Z,9.80
2022-10-20T14:56:56.135Z,7.50
2022-10-20T14:59:28.328Z,8.27
2022-10-20T15:02:05.187Z,6.40
2022-10-20T15:04:33.664Z,11.95
2022-10-20T15:07:06.634Z,4.45
2022-10-20T15:09:39.570Z,6.25
2022-10-20T15:12:32.096Z,8.98
2022-10-20T15:15:06.407Z,5.32
2022-10-20T15:17:39.027Z,7.38
2022-10-20T15:20:36.854Z,9.73
2022-10-20T15:23:10.403Z,5.03
2022-10-20T15:25:53.212Z,5.10
2022-10-20T15:28:46.253Z,4.88
2022-10-20T15:31:12.664Z,3.88
2022-10-20T15:33:39.938Z,6.65
2022-10-20T15:36:14.319Z,6.40
2022-10-20T15:38:41.792Z,11.45
2022-10-20T15:41:15.129Z,12.20
2022-10-20T15:43:42.388Z,8.52
2022-10-20T15:46:11.271Z,7.27
2022-10-20T15:48:38.084Z,9.88
2022-10-20T15:51:05.215Z,6.88
2022-10-20T15:53:31.701Z,3.63
2022-10-20T15:55:58.167Z,5.05
2022-10-20T15:58:24.705Z,5.25
2022-10-20T16:00:51.194Z,6.22
2022-10-20T16:03:18.861Z,4.20
2022-10-20T16:05:46.970Z,4.05
2022-10-20T16:10:59.970Z,4.30
2022-10-20T16:13:26.529Z,7.28
2022-10-20T16:15:53.079Z,4.00
2022-10-20T16:18:19.621Z,4.35
2022-10-20T16:20:46.153Z,7.68
2022-10-20T16:23:12.604Z,5.47
2022-10-20T16:25:40.204Z,11.55
2022-10-20T16:28:07.213Z,4.68
2022-10-20T16:30:33.737Z,5.63
2022-10-20T16:33:00.238Z,9.48
2022-10-20T16:35:26.842Z,4.43
2022-10-20T16:37:53.322Z,5.93
2022-10-20T16:40:19.879Z,14.93
2022-10-20T16:42:46.352Z,4.50
2022-10-20T16:45:12.928Z,5.90
2022-10-20T16:47:39.914Z,5.60
2022-10-20T16:50:06.906Z,4.03
2022-10-20T16:52:33.471Z,7.53
2022-10-20T16:55:00.141Z,5.57
2022-10-20T16:57:26.655Z,6.70
2022-10-20T16:59:53.193Z,5.47
2022-10-20T17:02:19.828Z,8.82
2022-10-20T17:04:49.995Z,8.38
2022-10-20T17:07:17.515Z,9.60
2022-10-20T17:09:44.040Z,9.15
2022-10-20T17:12:10.641Z,4.60
2022-10-20T17:14:39.920Z,7.85
2022-10-20T17:17:06.786Z,4.88
2022-10-20T17:19:33.240Z,7.90
2022-10-20T17:21:59.806Z,7.75
2022-10-20T17:24:26.513Z,8.48
2022-10-20T17:26:53.023Z,8.32
2022-10-20T17:29:22.358Z,9.27
2022-10-20T17:31:51.745Z,4.97
2022-10-20T17:34:18.268Z,7.38
2022-10-20T17:36:44.817Z,7.47
2022-10-20T17:39:14.662Z,8.15
2022-10-20T17:41:41.196Z,5.47
2022-10-20T17:44:07.680Z,6.50
2022-10-20T17:46:34.304Z,12.90
2022-10-20T17:49:01.627Z,3.47
2022-10-20T17:51:31.847Z,5.87
2022-10-20T17:54:01.135Z,5.65
2022-10-20T17:56:36.373Z,4.05
2022-10-20T17:59:05.159Z,5.32
2022-10-20T18:01:34.224Z,5.03
2022-10-20T18:04:10.774Z,7.53
2022-10-20T18:06:38.007Z,6.95
2022-10-20T18:09:10.365Z,6.35
2022-10-20T18:11:38.679Z,5.28
2022-10-20T18:14:05.848Z,6.97
2022-10-20T18:16:34.752Z,9.57
2022-10-20T18:19:01.484Z,5.22
2022-10-20T18:21:29.759Z,7.53
2022-10-20T18:23:58.677Z,4.88
2022-10-20T18:26:25.673Z,5.05
2022-10-20T18:28:52.288Z,5.72
2022-10-20T18:31:21.538Z,5.75
2022-10-20T18:34:02.554Z,8.75
2022-10-20T18:36:33.615Z,7.47
2022-10-20T18:39:00.540Z,5.88
2022-10-20T18:41:31.917Z,4.03
2022-10-20T18:44:02.389Z,6.50
2022-10-20T18:46:31.003Z,7.60
2022-10-20T18:48:58.144Z,8.27
2022-10-20T18:51:24.711Z,4.28
2022-10-20T18:53:54.000Z,5.40
2022-10-20T18:56:22.054Z,3.72
2022-10-20T18:58:54.736Z,4.60
2022-10-20T19:01:24.879Z,6.03
2022-10-20T19:03:53.647Z,8.55
2022-10-20T19:06:22.929Z,6.60
2022-10-20T19:08:53.281Z,6.40
2022-10-20T19:11:22.178Z,8.65
2022-10-20T19:13:49.267Z,8.00
2022-10-20T19:16:18.606Z,11.70
2022-10-20T19:18:46.563Z,5.85
2022-10-20T19:21:13.971Z,5.72
2022-10-20T19:23:43.417Z,12.70
2022-10-20T19:26:21.145Z,12.13
2022-10-20T19:28:58.847Z,5.55
2022-10-20T19:31:32.042Z,5.80
2022-10-20T19:34:04.950Z,5.80
2022-10-20T19:36:31.733Z,5.05
2022-10-20T19:38:58.340Z,6.47
2022-10-20T19:41:25.528Z,8.27
2022-10-20T19:43:52.397Z,7.60
2022-10-20T19:46:20.436Z,5.70
2022-10-20T19:48:47.991Z,5.57
2022-10-20T19:51:16.070Z,9.82
2022-10-20T19:53:43.026Z,7.03
2022-10-20T19:56:09.972Z,11.43
2022-10-20T19:58:39.379Z,6.72
2022-10-20T20:01:09.477Z,9.70
2022-10-20T20:06:04.987Z,11.65
2022-10-20T20:08:32.051Z,6.50
2022-10-20T20:10:59.503Z,8.43
2022-10-20T20:13:26.224Z,9.15
2022-10-20T20:15:53.296Z,6.60
2022-10-20T20:18:19.940Z,6.95
2022-10-20T20:20:48.184Z,7.85
2022-10-20T20:23:15.791Z,6.32
2022-10-20T20:25:44.739Z,5.35
2022-10-20T20:28:11.689Z,5.53
2022-10-20T20:30:38.380Z,7.07
2022-10-20T20:33:04.873Z,7.30
2022-10-20T20:35:31.543Z,6.40
2022-10-20T20:37:58.565Z,8.48
2022-10-20T20:40:25.730Z,6.90
2022-10-20T20:42:52.798Z,9.88
2022-10-20T20:45:22.419Z,5.75
2022-10-20T20:47:49.194Z,7.68
2022-10-20T20:50:15.973Z,5.90
2022-10-20T20:52:42.668Z,4.68
2022-10-20T20:55:09.574Z,7.28
2022-10-20T20:57:36.460Z,4.90
2022-10-20T21:00:04.432Z,5.97
2022-10-20T21:02:30.949Z,10.25
2022-10-20T21:04:57.592Z,7.70
2022-10-20T21:07:24.135Z,6.18
2022-10-20T21:09:50.607Z,8.55
2022-10-20T21:12:17.078Z,9.73
2022-10-20T21:14:43.575Z,7.88
2022-10-20T21:17:10.101Z,7.15
2022-10-20T21:19:36.727Z,5.53
2022-10-20T21:22:03.402Z,7.32
2022-10-20T21:24:30.002Z,6.10
2022-10-20T21:26:57.818Z,6.15
2022-10-20T21:29:24.605Z,7.63
2022-10-20T21:31:51.161Z,7.25
2022-10-20T21:34:17.671Z,7.13
2022-10-20T21:36:44.256Z,6.72
2022-10-20T21:39:13.127Z,6.95
2022-10-20T21:41:39.697Z,6.57
2022-10-20T21:44:07.396Z,6.78
2022-10-20T21:46:38.875Z,9.45
2022-10-20T21:49:07.934Z,12.27
2022-10-20T21:51:36.599Z,8.60
2022-10-20T21:54:12.378Z,11.05
2022-10-20T21:56:40.888Z,6.95
2022-10-20T21:59:12.265Z,7.50
2022-10-20T22:01:38.771Z,5.90
2022-10-20T22:04:05.298Z,9.50
2022-10-20T22:06:31.832Z,9.00
2022-10-20T22:08:59.038Z,9.43
2022-10-20T22:11:28.897Z,7.13
2022-10-20T22:13:56.111Z,6.32
2022-10-20T22:16:28.390Z,4.65
2022-10-20T22:19:00.013Z,5.68
2022-10-20T22:21:28.097Z,5.32
2022-10-20T22:23:56.556Z,5.43
2022-10-20T22:26:26.304Z,5.47
2022-10-20T22:28:53.328Z,6.68
2022-10-20T22:31:19.954Z,6.63
2022-10-20T22:33:46.565Z,6.72
2022-10-20T22:36:13.032Z,5.22
2022-10-20T22:38:39.512Z,5.53
2022-10-20T22:41:06.187Z,5.63
2022-10-20T22:43:32.828Z,7.43
2022-10-20T22:45:59.264Z,11.38
2022-10-20T22:48:26.135Z,9.55
2022-10-20T22:50:52.898Z,6.25
2022-10-20T22:53:19.754Z,14.18
2022-10-20T22:55:47.028Z,5.95
2022-10-20T22:58:13.572Z,10.48
2022-10-20T23:00:41.442Z,6.97
2022-10-20T23:03:08.022Z,8.20
2022-10-20T23:05:34.703Z,6.50
2022-10-20T23:08:01.213Z,8.05
2022-10-20T23:10:28.022Z,8.32
2022-10-20T23:12:54.566Z,7.07
2022-10-20T23:15:21.212Z,6.47
2022-10-20T23:17:47.702Z,6.40
2022-10-20T23:20:14.341Z,7.03
2022-10-20T23:22:40.890Z,6.72
2022-10-20T23:25:07.840Z,6.60
2022-10-20T23:27:35.578Z,5.82
2022-10-20T23:30:02.399Z,5.40
2022-10-20T23:32:28.921Z,3.92
2022-10-20T23:34:55.442Z,5.88
2022-10-20T23:37:22.177Z,7.93
2022-10-20T23:39:48.872Z,3.95
2022-10-20T23:42:15.415Z,4.47
2022-10-20T23:44:41.934Z,6.60
2022-10-20T23:47:08.550Z,5.53
2022-10-20T23:49:35.102Z,5.88
2022-10-20T23:52:01.630Z,4.03
2022-10-20T23:54:28.135Z,8.02
2022-10-20T23:56:54.605Z,11.15
2022-10-20T23:59:21.054Z,8.25
